sensor_id;sensor_type;location;lat;lon;timestamp;P1;durP1;ratioP1;P2;durP2;ratioP2
1701;SDS011;848;48.354;10.064;2022-09-24T00:01:33;11.48;;;10.48;;
1701;SDS011;848;48.354;10.064;2022-09-24T00:04:03;13.23;;;10.90;;
1701;SDS011;848;48.354;10.064;2022-09-24T00:06:33;13.30;;;11.80;;
1701;SDS011;848;48.354;10.064;2022-09-24T00:09:03;13.43;;;12.02;;
1701;SDS011;848;48.354;10.064;2022-09-24T00:11:30;12.65;;;11.10;;
1701;SDS011;848;48.354;10.064;2022-09-24T00:13:58;13.55;;;12.18;;
1701;SDS011;848;48.354;10.064;2022-09-24T00:16:27;13.73;;;11.65;;
1701;SDS011;848;48.354;10.064;2022-09-24T00:18:58;14.07;;;11.60;;
1701;SDS011;848;48.354;10.064;2022-09-24T00:21:26;12.23;;;10.93;;
1701;SDS011;848;48.354;10.064;2022-09-24T00:23:55;13.20;;;11.23;;
1701;SDS011;848;48.354;10.064;2022-09-24T00:26:23;16.08;;;11.63;;
1701;SDS011;848;48.354;10.064;2022-09-24T00:29:11;13.77;;;11.60;;
1701;SDS011;848;48.354;10.064;2022-09-24T00:31:39;14.05;;;10.98;;
1701;SDS011;848;48.354;10.064;2022-09-24T00:34:06;14.93;;;11.48;;
1701;SDS011;848;48.354;10.064;2022-09-24T00:36:34;15.82;;;12.07;;
1701;SDS011;848;48.354;10.064;2022-09-24T00:39:01;16.42;;;11.25;;
1701;SDS011;848;48.354;10.064;2022-09-24T00:41:30;12.95;;;11.65;;
1701;SDS011;848;48.354;10.064;2022-09-24T00:44:00;13.10;;;10.98;;
1701;SDS011;848;48.354;10.064;2022-09-24T00:46:48;15.05;;;12.27;;
1701;SDS011;848;48.354;10.064;2022-09-24T00:49:18;11.85;;;10.73;;
1701;SDS011;848;48.354;10.064;2022-09-24T00:51:46;12.65;;;11.15;;
1701;SDS011;848;48.354;10.064;2022-09-24T00:54:17;14.32;;;11.00;;
1701;SDS011;848;48.354;10.064;2022-09-24T00:56:47;12.75;;;11.20;;
1701;SDS011;848;48.354;10.064;2022-09-24T00:59:16;13.80;;;10.90;;
1701;SDS011;848;48.354;10.064;2022-09-24T01:01:48;12.23;;;9.73;;
1701;SDS011;848;48.354;10.064;2022-09-24T01:04:17;11.40;;;10.15;;
1701;SDS011;848;48.354;10.064;2022-09-24T01:06:45;12.63;;;10.45;;
1701;SDS011;848;48.354;10.064;2022-09-24T01:09:13;12.73;;;11.40;;
1701;SDS011;848;48.354;10.064;2022-09-24T01:11:41;12.45;;;11.13;;
1701;SDS011;848;48.354;10.064;2022-09-24T01:17:28;12.60;;;10.48;;
1701;SDS011;848;48.354;10.064;2022-09-24T01:20:14;11.55;;;10.35;;
1701;SDS011;848;48.354;10.064;2022-09-24T01:23:03;11.23;;;10.05;;
1701;SDS011;848;48.354;10.064;2022-09-24T01:25:47;13.80;;;10.32;;
1701;SDS011;848;48.354;10.064;2022-09-24T01:28:32;10.98;;;9.88;;
1701;SDS011;848;48.354;10.064;2022-09-24T01:31:13;11.35;;;10.00;;
1701;SDS011;848;48.354;10.064;2022-09-24T01:33:43;13.13;;;10.38;;
1701;SDS011;848;48.354;10.064;2022-09-24T01:36:17;12.38;;;10.57;;
1701;SDS011;848;48.354;10.064;2022-09-24T01:38:46;12.63;;;10.05;;
1701;SDS011;848;48.354;10.064;2022-09-24T01:41:15;19.40;;;11.15;;
1701;SDS011;848;48.354;10.064;2022-09-24T01:43:44;11.75;;;10.05;;
1701;SDS011;848;48.354;10.064;2022-09-24T01:46:13;13.40;;;10.32;;
1701;SDS011;848;48.354;10.064;2022-09-24T01:48:43;13.25;;;9.70;;
1701;SDS011;848;48.354;10.064;2022-09-24T01:51:12;11.98;;;10.77;;
1701;SDS011;848;48.354;10.064;2022-09-24T01:53:43;12.88;;;9.63;;
1701;SDS011;848;48.354;10.064;2022-09-24T01:56:14;18.90;;;11.63;;
1701;SDS011;848;48.354;10.064;2022-09-24T01:58:47;13.38;;;9.98;;
1701;SDS011;848;48.354;10.064;2022-09-24T02:01:20;12.60;;;10.02;;
1701;SDS011;848;48.354;10.064;2022-09-24T02:03:52;19.02;;;10.32;;
1701;SDS011;848;48.354;10.064;2022-09-24T02:06:24;14.55;;;10.18;;
1701;SDS011;848;48.354;10.064;2022-09-24T02:08:56;15.90;;;10.70;;
1701;SDS011;848;48.354;10.064;2022-09-24T02:11:24;13.45;;;10.05;;
1701;SDS011;848;48.354;10.064;2022-09-24T02:13:53;14.45;;;11.15;;
1701;SDS011;848;48.354;10.064;2022-09-24T02:16:26;17.25;;;10.80;;
1701;SDS011;848;48.354;10.064;2022-09-24T02:18:57;13.40;;;11.80;;
1701;SDS011;848;48.354;10.064;2022-09-24T02:21:26;13.90;;;11.93;;
1701;SDS011;848;48.354;10.064;2022-09-24T02:23:57;11.70;;;10.50;;
1701;SDS011;848;48.354;10.064;2022-09-24T02:26:28;12.05;;;10.95;;
1701;SDS011;848;48.354;10.064;2022-09-24T02:28:55;14.65;;;11.35;;
1701;SDS011;848;48.354;10.064;2022-09-24T02:31:23;12.80;;;11.20;;
1701;SDS011;848;48.354;10.064;2022-09-24T02:33:53;12.82;;;11.48;;
1701;SDS011;848;48.354;10.064;2022-09-24T02:36:40;13.02;;;10.52;;
1701;SDS011;848;48.354;10.064;2022-09-24T02:39:08;11.85;;;10.38;;
1701;SDS011;848;48.354;10.064;2022-09-24T02:41:35;11.93;;;10.27;;
1701;SDS011;848;48.354;10.064;2022-09-24T02:44:02;15.18;;;10.75;;
1701;SDS011;848;48.354;10.064;2022-09-24T02:46:31;12.30;;;11.00;;
1701;SDS011;848;48.354;10.064;2022-09-24T02:48:57;15.18;;;9.82;;
1701;SDS011;848;48.354;10.064;2022-09-24T02:51:24;13.95;;;10.52;;
1701;SDS011;848;48.354;10.064;2022-09-24T02:53:52;11.88;;;10.50;;
1701;SDS011;848;48.354;10.064;2022-09-24T02:56:18;14.50;;;11.18;;
1701;SDS011;848;48.354;10.064;2022-09-24T02:58:45;12.65;;;10.45;;
1701;SDS011;848;48.354;10.064;2022-09-24T03:01:12;11.18;;;9.80;;
1701;SDS011;848;48.354;10.064;2022-09-24T03:03:40;11.30;;;9.90;;
1701;SDS011;848;48.354;10.064;2022-09-24T03:06:07;12.13;;;10.75;;
1701;SDS011;848;48.354;10.064;2022-09-24T03:08:36;10.93;;;9.82;;
1701;SDS011;848;48.354;10.064;2022-09-24T03:11:10;12.13;;;10.80;;
1701;SDS011;848;48.354;10.064;2022-09-24T03:13:37;12.75;;;11.10;;
1701;SDS011;848;48.354;10.064;2022-09-24T03:16:05;14.52;;;12.20;;
1701;SDS011;848;48.354;10.064;2022-09-24T03:18:33;12.30;;;10.98;;
1701;SDS011;848;48.354;10.064;2022-09-24T03:21:02;12.23;;;10.50;;
1701;SDS011;848;48.354;10.064;2022-09-24T03:23:32;10.45;;;9.35;;
1701;SDS011;848;48.354;10.064;2022-09-24T03:26:00;11.38;;;10.18;;
1701;SDS011;848;48.354;10.064;2022-09-24T03:28:27;11.75;;;10.32;;
1701;SDS011;848;48.354;10.064;2022-09-24T03:30:55;11.60;;;10.38;;
1701;SDS011;848;48.354;10.064;2022-09-24T03:33:27;13.85;;;10.40;;
1701;SDS011;848;48.354;10.064;2022-09-24T03:35:56;18.10;;;11.15;;
1701;SDS011;848;48.354;10.064;2022-09-24T03:38:26;14.32;;;12.88;;
1701;SDS011;848;48.354;10.064;2022-09-24T03:40:53;13.82;;;12.32;;
1701;SDS011;848;48.354;10.064;2022-09-24T03:43:20;16.27;;;12.82;;
1701;SDS011;848;48.354;10.064;2022-09-24T03:45:47;15.43;;;12.07;;
1701;SDS011;848;48.354;10.064;2022-09-24T03:48:14;12.25;;;10.95;;
1701;SDS011;848;48.354;10.064;2022-09-24T03:50:41;15.80;;;11.48;;
1701;SDS011;848;48.354;10.064;2022-09-24T03:53:08;13.82;;;11.68;;
1701;SDS011;848;48.354;10.064;2022-09-24T03:55:40;16.70;;;12.40;;
1701;SDS011;848;48.354;10.064;2022-09-24T03:58:08;13.60;;;11.73;;
1701;SDS011;848;48.354;10.064;2022-09-24T04:00:36;16.15;;;11.57;;
1701;SDS011;848;48.354;10.064;2022-09-24T04:03:06;14.55;;;11.70;;
1701;SDS011;848;48.354;10.064;2022-09-24T04:05:34;13.85;;;12.15;;
1701;SDS011;848;48.354;10.064;2022-09-24T04:08:01;17.30;;;12.95;;
1701;SDS011;848;48.354;10.064;2022-09-24T04:10:30;18.83;;;12.38;;
1701;SDS011;848;48.354;10.064;2022-09-24T04:13:01;16.08;;;12.45;;
1701;SDS011;848;48.354;10.064;2022-09-24T04:15:29;15.48;;;12.23;;
1701;SDS011;848;48.354;10.064;2022-09-24T04:17:57;21.30;;;13.45;;
1701;SDS011;848;48.354;10.064;2022-09-24T04:20:25;17.50;;;14.50;;
1701;SDS011;848;48.354;10.064;2022-09-24T04:22:54;17.15;;;14.73;;
1701;SDS011;848;48.354;10.064;2022-09-24T04:25:22;16.95;;;14.45;;
1701;SDS011;848;48.354;10.064;2022-09-24T04:27:52;15.63;;;12.10;;
1701;SDS011;848;48.354;10.064;2022-09-24T04:30:21;14.48;;;12.82;;
1701;SDS011;848;48.354;10.064;2022-09-24T04:32:49;17.02;;;13.70;;
1701;SDS011;848;48.354;10.064;2022-09-24T04:35:16;18.35;;;16.23;;
1701;SDS011;848;48.354;10.064;2022-09-24T04:37:43;19.83;;;15.80;;
1701;SDS011;848;48.354;10.064;2022-09-24T04:40:16;17.98;;;15.48;;
1701;SDS011;848;48.354;10.064;2022-09-24T04:42:43;16.02;;;13.65;;
1701;SDS011;848;48.354;10.064;2022-09-24T04:45:11;16.80;;;13.23;;
1701;SDS011;848;48.354;10.064;2022-09-24T04:47:43;15.82;;;14.02;;
1701;SDS011;848;48.354;10.064;2022-09-24T04:50:10;23.17;;;14.70;;
1701;SDS011;848;48.354;10.064;2022-09-24T04:52:38;16.52;;;14.10;;
1701;SDS011;848;48.354;10.064;2022-09-24T04:55:05;14.65;;;13.10;;
1701;SDS011;848;48.354;10.064;2022-09-24T04:57:32;15.65;;;13.82;;
1701;SDS011;848;48.354;10.064;2022-09-24T05:00:00;15.40;;;13.80;;
1701;SDS011;848;48.354;10.064;2022-09-24T05:02:27;15.95;;;14.10;;
1701;SDS011;848;48.354;10.064;2022-09-24T05:04:55;16.02;;;13.10;;
1701;SDS011;848;48.354;10.064;2022-09-24T05:07:22;13.75;;;12.35;;
1701;SDS011;848;48.354;10.064;2022-09-24T05:09:49;15.95;;;13.90;;
1701;SDS011;848;48.354;10.064;2022-09-24T05:12:16;14.27;;;12.88;;
1701;SDS011;848;48.354;10.064;2022-09-24T05:14:44;14.15;;;12.65;;
1701;SDS011;848;48.354;10.064;2022-09-24T05:17:11;16.70;;;13.10;;
1701;SDS011;848;48.354;10.064;2022-09-24T05:19:38;14.15;;;12.10;;
1701;SDS011;848;48.354;10.064;2022-09-24T05:22:06;16.20;;;13.88;;
1701;SDS011;848;48.354;10.064;2022-09-24T05:24:33;15.50;;;13.85;;
1701;SDS011;848;48.354;10.064;2022-09-24T05:27:00;14.52;;;12.30;;
1701;SDS011;848;48.354;10.064;2022-09-24T05:29:36;18.48;;;13.10;;
1701;SDS011;848;48.354;10.064;2022-09-24T05:32:04;13.70;;;12.25;;
1701;SDS011;848;48.354;10.064;2022-09-24T05:34:32;13.95;;;12.07;;
1701;SDS011;848;48.354;10.064;2022-09-24T05:36:59;15.48;;;12.90;;
1701;SDS011;848;48.354;10.064;2022-09-24T05:39:28;15.30;;;12.15;;
1701;SDS011;848;48.354;10.064;2022-09-24T05:41:55;15.45;;;12.57;;
1701;SDS011;848;48.354;10.064;2022-09-24T05:44:22;16.17;;;12.32;;
1701;SDS011;848;48.354;10.064;2022-09-24T05:46:50;14.75;;;13.05;;
1701;SDS011;848;48.354;10.064;2022-09-24T05:49:17;14.70;;;12.30;;
1701;SDS011;848;48.354;10.064;2022-09-24T05:51:46;16.38;;;12.93;;
1701;SDS011;848;48.354;10.064;2022-09-24T05:54:14;14.23;;;12.73;;
1701;SDS011;848;48.354;10.064;2022-09-24T05:56:42;14.45;;;12.65;;
1701;SDS011;848;48.354;10.064;2022-09-24T05:59:09;19.75;;;12.57;;
1701;SDS011;848;48.354;10.064;2022-09-24T06:01:37;13.77;;;12.30;;
1701;SDS011;848;48.354;10.064;2022-09-24T06:04:04;16.45;;;12.48;;
1701;SDS011;848;48.354;10.064;2022-09-24T06:06:31;15.65;;;12.70;;
1701;SDS011;848;48.354;10.064;2022-09-24T06:08:58;16.30;;;13.50;;
1701;SDS011;848;48.354;10.064;2022-09-24T06:11:25;24.38;;;18.88;;
1701;SDS011;848;48.354;10.064;2022-09-24T06:13:55;19.48;;;16.80;;
1701;SDS011;848;48.354;10.064;2022-09-24T06:16:23;20.35;;;15.85;;
1701;SDS011;848;48.354;10.064;2022-09-24T06:18:50;23.23;;;18.75;;
1701;SDS011;848;48.354;10.064;2022-09-24T06:21:17;29.25;;;20.67;;
1701;SDS011;848;48.354;10.064;2022-09-24T06:23:44;19.55;;;17.20;;
1701;SDS011;848;48.354;10.064;2022-09-24T06:26:12;19.08;;;17.05;;
1701;SDS011;848;48.354;10.064;2022-09-24T06:28:39;17.33;;;15.13;;
1701;SDS011;848;48.354;10.064;2022-09-24T06:31:08;17.33;;;13.60;;
1701;SDS011;848;48.354;10.064;2022-09-24T06:33:36;18.92;;;13.48;;
1701;SDS011;848;48.354;10.064;2022-09-24T06:36:04;16.00;;;14.30;;
1701;SDS011;848;48.354;10.064;2022-09-24T06:38:32;23.90;;;17.20;;
1701;SDS011;848;48.354;10.064;2022-09-24T06:41:01;16.45;;;13.57;;
1701;SDS011;848;48.354;10.064;2022-09-24T06:43:30;33.88;;;14.85;;
1701;SDS011;848;48.354;10.064;2022-09-24T06:45:59;17.48;;;13.48;;
1701;SDS011;848;48.354;10.064;2022-09-24T06:48:30;30.02;;;14.85;;
1701;SDS011;848;48.354;10.064;2022-09-24T06:50:58;21.60;;;14.05;;
1701;SDS011;848;48.354;10.064;2022-09-24T06:53:28;22.38;;;13.75;;
1701;SDS011;848;48.354;10.064;2022-09-24T06:55:56;19.92;;;13.18;;
1701;SDS011;848;48.354;10.064;2022-09-24T06:58:24;22.55;;;17.25;;
1701;SDS011;848;48.354;10.064;2022-09-24T07:00:52;17.40;;;13.70;;
1701;SDS011;848;48.354;10.064;2022-09-24T07:03:22;23.02;;;14.75;;
1701;SDS011;848;48.354;10.064;2022-09-24T07:05:50;18.20;;;13.52;;
1701;SDS011;848;48.354;10.064;2022-09-24T07:08:17;18.27;;;16.42;;
1701;SDS011;848;48.354;10.064;2022-09-24T07:10:44;18.15;;;16.25;;
1701;SDS011;848;48.354;10.064;2022-09-24T07:13:13;15.25;;;13.52;;
1701;SDS011;848;48.354;10.064;2022-09-24T07:15:41;18.20;;;15.25;;
1701;SDS011;848;48.354;10.064;2022-09-24T07:18:08;20.60;;;15.23;;
1701;SDS011;848;48.354;10.064;2022-09-24T07:20:36;18.95;;;15.38;;
1701;SDS011;848;48.354;10.064;2022-09-24T07:23:05;17.55;;;13.43;;
1701;SDS011;848;48.354;10.064;2022-09-24T07:25:33;16.58;;;13.18;;
1701;SDS011;848;48.354;10.064;2022-09-24T07:28:01;16.73;;;13.98;;
1701;SDS011;848;48.354;10.064;2022-09-24T07:30:28;18.45;;;15.55;;
1701;SDS011;848;48.354;10.064;2022-09-24T07:32:56;16.85;;;14.23;;
1701;SDS011;848;48.354;10.064;2022-09-24T07:35:23;15.13;;;13.30;;
1701;SDS011;848;48.354;10.064;2022-09-24T07:37:57;16.52;;;14.82;;
1701;SDS011;848;48.354;10.064;2022-09-24T07:40:27;16.00;;;13.82;;
1701;SDS011;848;48.354;10.064;2022-09-24T07:42:55;17.95;;;15.60;;
1701;SDS011;848;48.354;10.064;2022-09-24T07:45:22;16.35;;;14.27;;
1701;SDS011;848;48.354;10.064;2022-09-24T07:47:56;22.15;;;14.90;;
1701;SDS011;848;48.354;10.064;2022-09-24T07:50:24;16.13;;;14.43;;
1701;SDS011;848;48.354;10.064;2022-09-24T07:52:52;15.50;;;13.90;;
1701;SDS011;848;48.354;10.064;2022-09-24T07:55:19;16.77;;;15.00;;
1701;SDS011;848;48.354;10.064;2022-09-24T07:57:48;18.88;;;16.13;;
1701;SDS011;848;48.354;10.064;2022-09-24T08:00:16;18.75;;;15.90;;
1701;SDS011;848;48.354;10.064;2022-09-24T08:02:44;20.10;;;15.50;;
1701;SDS011;848;48.354;10.064;2022-09-24T08:05:12;20.75;;;17.52;;
1701;SDS011;848;48.354;10.064;2022-09-24T08:07:42;21.88;;;17.15;;
1701;SDS011;848;48.354;10.064;2022-09-24T08:10:15;24.38;;;17.98;;
1701;SDS011;848;48.354;10.064;2022-09-24T08:12:42;25.55;;;17.73;;
1701;SDS011;848;48.354;10.064;2022-09-24T08:15:11;22.75;;;17.90;;
1701;SDS011;848;48.354;10.064;2022-09-24T08:17:38;23.52;;;18.83;;
1701;SDS011;848;48.354;10.064;2022-09-24T08:20:05;22.60;;;19.60;;
1701;SDS011;848;48.354;10.064;2022-09-24T08:22:32;24.15;;;18.85;;
1701;SDS011;848;48.354;10.064;2022-09-24T08:25:00;24.35;;;19.42;;
1701;SDS011;848;48.354;10.064;2022-09-24T08:27:28;23.92;;;20.17;;
1701;SDS011;848;48.354;10.064;2022-09-24T08:29:56;27.75;;;19.30;;
1701;SDS011;848;48.354;10.064;2022-09-24T08:32:26;23.73;;;18.10;;
1701;SDS011;848;48.354;10.064;2022-09-24T08:34:53;22.40;;;17.35;;
1701;SDS011;848;48.354;10.064;2022-09-24T08:37:20;24.35;;;18.85;;
1701;SDS011;848;48.354;10.064;2022-09-24T08:39:47;25.95;;;20.42;;
1701;SDS011;848;48.354;10.064;2022-09-24T08:42:18;23.23;;;18.20;;
1701;SDS011;848;48.354;10.064;2022-09-24T08:44:53;23.75;;;20.00;;
1701;SDS011;848;48.354;10.064;2022-09-24T08:47:44;21.35;;;18.98;;
1701;SDS011;848;48.354;10.064;2022-09-24T08:50:17;23.25;;;19.45;;
1701;SDS011;848;48.354;10.064;2022-09-24T08:52:55;24.73;;;19.42;;
1701;SDS011;848;48.354;10.064;2022-09-24T08:55:33;29.77;;;20.17;;
1701;SDS011;848;48.354;10.064;2022-09-24T09:00:58;22.50;;;17.70;;
1701;SDS011;848;48.354;10.064;2022-09-24T09:03:34;23.63;;;19.20;;
1701;SDS011;848;48.354;10.064;2022-09-24T09:06:08;22.50;;;18.80;;
1701;SDS011;848;48.354;10.064;2022-09-24T09:08:40;24.40;;;19.83;;
1701;SDS011;848;48.354;10.064;2022-09-24T09:11:14;28.60;;;20.17;;
1701;SDS011;848;48.354;10.064;2022-09-24T09:13:44;26.00;;;18.95;;
1701;SDS011;848;48.354;10.064;2022-09-24T09:16:20;21.98;;;18.73;;
1701;SDS011;848;48.354;10.064;2022-09-24T09:18:53;24.42;;;19.10;;
1701;SDS011;848;48.354;10.064;2022-09-24T09:21:26;21.98;;;18.70;;
1701;SDS011;848;48.354;10.064;2022-09-24T09:23:59;23.35;;;18.83;;
1701;SDS011;848;48.354;10.064;2022-09-24T09:26:28;25.63;;;18.45;;
1701;SDS011;848;48.354;10.064;2022-09-24T09:28:57;20.13;;;17.25;;
1701;SDS011;848;48.354;10.064;2022-09-24T09:31:27;20.95;;;18.20;;
1701;SDS011;848;48.354;10.064;2022-09-24T09:34:10;21.50;;;17.02;;
1701;SDS011;848;48.354;10.064;2022-09-24T09:36:57;21.40;;;17.20;;
1701;SDS011;848;48.354;10.064;2022-09-24T09:39:33;19.02;;;15.88;;
1701;SDS011;848;48.354;10.064;2022-09-24T09:42:16;21.10;;;16.15;;
1701;SDS011;848;48.354;10.064;2022-09-24T09:44:54;19.05;;;15.23;;
1701;SDS011;848;48.354;10.064;2022-09-24T09:47:24;17.27;;;15.20;;
1701;SDS011;848;48.354;10.064;2022-09-24T09:50:04;16.15;;;14.10;;
1701;SDS011;848;48.354;10.064;2022-09-24T09:52:36;18.52;;;15.20;;
1701;SDS011;848;48.354;10.064;2022-09-24T09:55:05;24.17;;;21.73;;
1701;SDS011;848;48.354;10.064;2022-09-24T09:57:33;18.58;;;14.43;;
1701;SDS011;848;48.354;10.064;2022-09-24T10:00:01;16.45;;;13.60;;
1701;SDS011;848;48.354;10.064;2022-09-24T10:02:31;17.52;;;14.35;;
1701;SDS011;848;48.354;10.064;2022-09-24T10:05:00;18.25;;;14.45;;
1701;SDS011;848;48.354;10.064;2022-09-24T10:07:30;19.48;;;13.57;;
1701;SDS011;848;48.354;10.064;2022-09-24T10:10:02;17.40;;;15.40;;
1701;SDS011;848;48.354;10.064;2022-09-24T10:12:42;17.35;;;14.10;;
1701;SDS011;848;48.354;10.064;2022-09-24T10:15:15;15.80;;;12.82;;
1701;SDS011;848;48.354;10.064;2022-09-24T10:17:43;15.13;;;13.48;;
1701;SDS011;848;48.354;10.064;2022-09-24T10:20:15;15.07;;;12.10;;
1701;SDS011;848;48.354;10.064;2022-09-24T10:22:46;15.25;;;12.48;;
1701;SDS011;848;48.354;10.064;2022-09-24T10:25:16;15.80;;;11.75;;
1701;SDS011;848;48.354;10.064;2022-09-24T10:27:48;15.07;;;11.10;;
1701;SDS011;848;48.354;10.064;2022-09-24T10:30:17;12.82;;;11.45;;
1701;SDS011;848;48.354;10.064;2022-09-24T10:32:58;10.38;;;9.05;;
1701;SDS011;848;48.354;10.064;2022-09-24T10:35:32;10.05;;;8.38;;
1701;SDS011;848;48.354;10.064;2022-09-24T10:38:12;15.07;;;13.38;;
1701;SDS011;848;48.354;10.064;2022-09-24T10:40:41;11.70;;;9.00;;
1701;SDS011;848;48.354;10.064;2022-09-24T10:43:13;10.40;;;8.82;;
1701;SDS011;848;48.354;10.064;2022-09-24T10:46:01;10.57;;;8.60;;
1701;SDS011;848;48.354;10.064;2022-09-24T10:48:37;13.82;;;9.40;;
1701;SDS011;848;48.354;10.064;2022-09-24T10:51:14;11.00;;;9.40;;
1701;SDS011;848;48.354;10.064;2022-09-24T10:53:56;10.93;;;9.52;;
1701;SDS011;848;48.354;10.064;2022-09-24T10:56:45;11.65;;;9.52;;
1701;SDS011;848;48.354;10.064;2022-09-24T10:59:22;12.20;;;10.75;;
1701;SDS011;848;48.354;10.064;2022-09-24T11:02:13;11.25;;;9.32;;
1701;SDS011;848;48.354;10.064;2022-09-24T11:04:54;15.43;;;8.85;;
1701;SDS011;848;48.354;10.064;2022-09-24T11:07:28;10.73;;;8.68;;
1701;SDS011;848;48.354;10.064;2022-09-24T11:10:20;9.77;;;8.55;;
1701;SDS011;848;48.354;10.064;2022-09-24T11:12:59;7.20;;;5.95;;
1701;SDS011;848;48.354;10.064;2022-09-24T11:15:47;7.47;;;6.53;;
1701;SDS011;848;48.354;10.064;2022-09-24T11:18:29;6.00;;;5.40;;
1701;SDS011;848;48.354;10.064;2022-09-24T11:21:09;9.27;;;6.30;;
1701;SDS011;848;48.354;10.064;2022-09-24T11:23:53;6.10;;;5.47;;
1701;SDS011;848;48.354;10.064;2022-09-24T11:26:43;7.20;;;4.63;;
1701;SDS011;848;48.354;10.064;2022-09-24T11:29:24;5.82;;;5.22;;
1701;SDS011;848;48.354;10.064;2022-09-24T11:32:02;5.68;;;3.92;;
1701;SDS011;848;48.354;10.064;2022-09-24T11:34:39;6.28;;;4.85;;
1701;SDS011;848;48.354;10.064;2022-09-24T11:37:22;5.75;;;4.65;;
1701;SDS011;848;48.354;10.064;2022-09-24T11:40:14;5.57;;;4.40;;
1701;SDS011;848;48.354;10.064;2022-09-24T11:42:55;4.60;;;3.70;;
1701;SDS011;848;48.354;10.064;2022-09-24T11:45:44;4.38;;;3.35;;
1701;SDS011;848;48.354;10.064;2022-09-24T11:48:26;4.18;;;3.75;;
1701;SDS011;848;48.354;10.064;2022-09-24T11:51:08;5.60;;;4.07;;
1701;SDS011;848;48.354;10.064;2022-09-24T11:53:44;5.60;;;4.13;;
1701;SDS011;848;48.354;10.064;2022-09-24T11:56:22;6.32;;;4.13;;
1701;SDS011;848;48.354;10.064;2022-09-24T11:58:56;5.78;;;4.60;;
1701;SDS011;848;48.354;10.064;2022-09-24T12:01:28;5.00;;;4.40;;
1701;SDS011;848;48.354;10.064;2022-09-24T12:03:59;6.57;;;5.18;;
1701;SDS011;848;48.354;10.064;2022-09-24T12:06:35;5.97;;;4.93;;
1701;SDS011;848;48.354;10.064;2022-09-24T12:09:12;6.38;;;5.45;;
1701;SDS011;848;48.354;10.064;2022-09-24T12:11:46;5.60;;;4.80;;
1701;SDS011;848;48.354;10.064;2022-09-24T12:14:17;5.75;;;5.15;;
1701;SDS011;848;48.354;10.064;2022-09-24T12:16:48;7.03;;;5.18;;
1701;SDS011;848;48.354;10.064;2022-09-24T12:19:19;7.22;;;5.55;;
1701;SDS011;848;48.354;10.064;2022-09-24T12:21:49;11.80;;;5.70;;
1701;SDS011;848;48.354;10.064;2022-09-24T12:24:20;5.85;;;4.82;;
1701;SDS011;848;48.354;10.064;2022-09-24T12:26:56;6.32;;;5.63;;
1701;SDS011;848;48.354;10.064;2022-09-24T12:29:31;7.40;;;6.05;;
1701;SDS011;848;48.354;10.064;2022-09-24T12:32:22;9.13;;;6.60;;
1701;SDS011;848;48.354;10.064;2022-09-24T12:35:15;6.30;;;5.32;;
1701;SDS011;848;48.354;10.064;2022-09-24T12:37:52;7.32;;;5.80;;
1701;SDS011;848;48.354;10.064;2022-09-24T12:40:32;6.70;;;5.60;;
1701;SDS011;848;48.354;10.064;2022-09-24T12:43:17;7.78;;;5.05;;
1701;SDS011;848;48.354;10.064;2022-09-24T12:45:52;6.45;;;5.07;;
1701;SDS011;848;48.354;10.064;2022-09-24T12:48:21;6.90;;;4.57;;
1701;SDS011;848;48.354;10.064;2022-09-24T12:50:54;6.85;;;4.50;;
1701;SDS011;848;48.354;10.064;2022-09-24T12:53:24;5.53;;;4.80;;
1701;SDS011;848;48.354;10.064;2022-09-24T12:55:57;5.97;;;4.68;;
1701;SDS011;848;48.354;10.064;2022-09-24T12:58:28;6.97;;;4.68;;
1701;SDS011;848;48.354;10.064;2022-09-24T13:01:05;5.00;;;4.28;;
1701;SDS011;848;48.354;10.064;2022-09-24T13:03:41;6.07;;;4.97;;
1701;SDS011;848;48.354;10.064;2022-09-24T13:06:22;7.45;;;4.40;;
1701;SDS011;848;48.354;10.064;2022-09-24T13:08:58;4.63;;;3.92;;
1701;SDS011;848;48.354;10.064;2022-09-24T13:11:30;4.85;;;3.58;;
1701;SDS011;848;48.354;10.064;2022-09-24T13:14:04;9.13;;;4.50;;
1701;SDS011;848;48.354;10.064;2022-09-24T13:16:44;5.85;;;4.68;;
1701;SDS011;848;48.354;10.064;2022-09-24T13:19:21;5.40;;;4.90;;
1701;SDS011;848;48.354;10.064;2022-09-24T13:21:52;7.00;;;5.97;;
1701;SDS011;848;48.354;10.064;2022-09-24T13:24:25;23.50;;;20.98;;
1701;SDS011;848;48.354;10.064;2022-09-24T13:26:53;30.45;;;24.33;;
1701;SDS011;848;48.354;10.064;2022-09-24T13:29:23;11.45;;;9.50;;
1701;SDS011;848;48.354;10.064;2022-09-24T13:31:52;9.27;;;7.95;;
1701;SDS011;848;48.354;10.064;2022-09-24T13:34:25;9.38;;;7.22;;
1701;SDS011;848;48.354;10.064;2022-09-24T13:36:54;10.15;;;7.60;;
1701;SDS011;848;48.354;10.064;2022-09-24T13:39:26;8.77;;;7.70;;
1701;SDS011;848;48.354;10.064;2022-09-24T13:41:59;7.78;;;6.97;;
1701;SDS011;848;48.354;10.064;2022-09-24T13:44:33;11.93;;;7.57;;
1701;SDS011;848;48.354;10.064;2022-09-24T13:47:03;10.68;;;9.45;;
1701;SDS011;848;48.354;10.064;2022-09-24T13:49:47;10.70;;;9.60;;
1701;SDS011;848;48.354;10.064;2022-09-24T13:52:21;10.00;;;9.00;;
1701;SDS011;848;48.354;10.064;2022-09-24T13:54:56;10.48;;;9.35;;
1701;SDS011;848;48.354;10.064;2022-09-24T13:57:26;9.27;;;8.15;;
1701;SDS011;848;48.354;10.064;2022-09-24T14:00:13;11.27;;;9.15;;
1701;SDS011;848;48.354;10.064;2022-09-24T14:02:44;12.40;;;9.35;;
1701;SDS011;848;48.354;10.064;2022-09-24T14:05:19;19.67;;;13.00;;
1701;SDS011;848;48.354;10.064;2022-09-24T14:07:58;18.55;;;13.85;;
1701;SDS011;848;48.354;10.064;2022-09-24T14:10:30;15.30;;;9.68;;
1701;SDS011;848;48.354;10.064;2022-09-24T14:13:00;14.60;;;11.48;;
1701;SDS011;848;48.354;10.064;2022-09-24T14:15:54;11.65;;;9.48;;
1701;SDS011;848;48.354;10.064;2022-09-24T14:18:22;16.73;;;13.63;;
1701;SDS011;848;48.354;10.064;2022-09-24T14:20:52;8.68;;;7.32;;
1701;SDS011;848;48.354;10.064;2022-09-24T14:23:26;8.60;;;7.40;;
1701;SDS011;848;48.354;10.064;2022-09-24T14:25:56;7.40;;;6.60;;
1701;SDS011;848;48.354;10.064;2022-09-24T14:28:24;7.50;;;6.68;;
1701;SDS011;848;48.354;10.064;2022-09-24T14:30:55;8.18;;;7.38;;
1701;SDS011;848;48.354;10.064;2022-09-24T14:33:22;8.60;;;7.25;;
1701;SDS011;848;48.354;10.064;2022-09-24T14:35:51;15.45;;;8.90;;
1701;SDS011;848;48.354;10.064;2022-09-24T14:38:21;10.65;;;8.30;;
1701;SDS011;848;48.354;10.064;2022-09-24T14:40:50;13.85;;;10.50;;
1701;SDS011;848;48.354;10.064;2022-09-24T14:43:21;11.70;;;9.02;;
1701;SDS011;848;48.354;10.064;2022-09-24T14:45:58;11.90;;;9.48;;
1701;SDS011;848;48.354;10.064;2022-09-24T14:48:31;10.40;;;8.80;;
1701;SDS011;848;48.354;10.064;2022-09-24T14:50:58;14.52;;;10.23;;
1701;SDS011;848;48.354;10.064;2022-09-24T14:53:26;10.73;;;9.63;;
1701;SDS011;848;48.354;10.064;2022-09-24T14:55:55;9.52;;;8.30;;
1701;SDS011;848;48.354;10.064;2022-09-24T14:58:31;9.77;;;8.00;;
1701;SDS011;848;48.354;10.064;2022-09-24T15:01:02;11.38;;;10.25;;
1701;SDS011;848;48.354;10.064;2022-09-24T15:03:35;13.82;;;10.55;;
1701;SDS011;848;48.354;10.064;2022-09-24T15:06:17;7.72;;;6.82;;
1701;SDS011;848;48.354;10.064;2022-09-24T15:08:54;8.27;;;7.40;;
1701;SDS011;848;48.354;10.064;2022-09-24T15:11:25;10.13;;;7.85;;
1701;SDS011;848;48.354;10.064;2022-09-24T15:13:57;9.65;;;8.65;;
1701;SDS011;848;48.354;10.064;2022-09-24T15:16:28;16.00;;;12.52;;
1701;SDS011;848;48.354;10.064;2022-09-24T15:18:59;15.02;;;13.00;;
1701;SDS011;848;48.354;10.064;2022-09-24T15:21:38;11.68;;;9.45;;
1701;SDS011;848;48.354;10.064;2022-09-24T15:24:07;10.77;;;9.57;;
1701;SDS011;848;48.354;10.064;2022-09-24T15:26:35;10.45;;;8.45;;
1701;SDS011;848;48.354;10.064;2022-09-24T15:29:05;10.93;;;9.00;;